sensor_id;sensor_type;location;lat;lon;timestamp;P1;durP1;ratioP1;P2;durP2;ratioP2
61962;SDS011;47927;42.646;23.096;2023-07-22T00:01:12;13.52;;;4.97;;
61962;SDS011;47927;42.646;23.096;2023-07-22T00:03:38;12.80;;;4.90;;
61962;SDS011;47927;42.646;23.096;2023-07-22T00:06:07;11.48;;;4.72;;
61962;SDS011;47927;42.646;23.096;2023-07-22T00:08:35;10.75;;;4.63;;
61962;SDS011;47927;42.646;23.096;2023-07-22T00:11:02;9.40;;;4.15;;
61962;SDS011;47927;42.646;23.096;2023-07-22T00:13:28;13.32;;;5.03;;
61962;SDS011;47927;42.646;23.096;2023-07-22T00:15:54;11.35;;;4.55;;
61962;SDS011;47927;42.646;23.096;2023-07-22T00:18:21;10.07;;;4.57;;
61962;SDS011;47927;42.646;23.096;2023-07-22T00:20:46;8.45;;;4.28;;
61962;SDS011;47927;42.646;23.096;2023-07-22T00:23:12;12.07;;;5.05;;
61962;SDS011;47927;42.646;23.096;2023-07-22T00:25:40;8.70;;;4.20;;
61962;SDS011;47927;42.646;23.096;2023-07-22T00:28:06;10.13;;;5.57;;
61962;SDS011;47927;42.646;23.096;2023-07-22T00:30:32;14.45;;;5.38;;
61962;SDS011;47927;42.646;23.096;2023-07-22T00:32:57;10.38;;;5.68;;
61962;SDS011;47927;42.646;23.096;2023-07-22T00:35:23;9.70;;;4.75;;
61962;SDS011;47927;42.646;23.096;2023-07-22T00:37:48;12.35;;;5.53;;
61962;SDS011;47927;42.646;23.096;2023-07-22T00:40:15;11.63;;;5.40;;
61962;SDS011;47927;42.646;23.096;2023-07-22T00:42:41;13.82;;;4.82;;
61962;SDS011;47927;42.646;23.096;2023-07-22T00:45:07;15.07;;;5.90;;
61962;SDS011;47927;42.646;23.096;2023-07-22T00:47:36;10.10;;;4.95;;
61962;SDS011;47927;42.646;23.096;2023-07-22T00:50:02;12.02;;;5.50;;
61962;SDS011;47927;42.646;23.096;2023-07-22T00:52:29;12.15;;;5.68;;
61962;SDS011;47927;42.646;23.096;2023-07-22T00:54:55;12.05;;;5.18;;
61962;SDS011;47927;42.646;23.096;2023-07-22T00:57:21;17.88;;;5.65;;
61962;SDS011;47927;42.646;23.096;2023-07-22T00:59:47;12.75;;;5.40;;
61962;SDS011;47927;42.646;23.096;2023-07-22T01:02:13;10.43;;;5.95;;
61962;SDS011;47927;42.646;23.096;2023-07-22T01:04:38;12.77;;;4.88;;
61962;SDS011;47927;42.646;23.096;2023-07-22T01:07:05;10.77;;;5.28;;
61962;SDS011;47927;42.646;23.096;2023-07-22T01:09:35;12.35;;;5.68;;
61962;SDS011;47927;42.646;23.096;2023-07-22T01:12:02;11.73;;;5.38;;
61962;SDS011;47927;42.646;23.096;2023-07-22T01:14:28;16.55;;;6.18;;
61962;SDS011;47927;42.646;23.096;2023-07-22T01:16:54;10.23;;;5.25;;
61962;SDS011;47927;42.646;23.096;2023-07-22T01:19:19;14.95;;;5.90;;
61962;SDS011;47927;42.646;23.096;2023-07-22T01:21:45;10.77;;;5.53;;
61962;SDS011;47927;42.646;23.096;2023-07-22T01:24:12;9.93;;;5.15;;
61962;SDS011;47927;42.646;23.096;2023-07-22T01:26:38;11.13;;;5.63;;
61962;SDS011;47927;42.646;23.096;2023-07-22T01:29:05;11.57;;;5.70;;
61962;SDS011;47927;42.646;23.096;2023-07-22T01:31:33;14.15;;;5.93;;
61962;SDS011;47927;42.646;23.096;2023-07-22T01:34:00;10.68;;;5.72;;
61962;SDS011;47927;42.646;23.096;2023-07-22T01:36:26;16.83;;;6.82;;
61962;SDS011;47927;42.646;23.096;2023-07-22T01:38:51;15.23;;;6.05;;
61962;SDS011;47927;42.646;23.096;2023-07-22T01:41:17;11.30;;;5.80;;
61962;SDS011;47927;42.646;23.096;2023-07-22T01:43:42;12.73;;;6.35;;
61962;SDS011;47927;42.646;23.096;2023-07-22T01:46:08;14.48;;;5.85;;
61962;SDS011;47927;42.646;23.096;2023-07-22T01:48:34;12.55;;;5.40;;
61962;SDS011;47927;42.646;23.096;2023-07-22T01:50:59;10.93;;;5.93;;
61962;SDS011;47927;42.646;23.096;2023-07-22T01:53:25;10.65;;;5.55;;
61962;SDS011;47927;42.646;23.096;2023-07-22T01:55:50;12.65;;;5.68;;
61962;SDS011;47927;42.646;23.096;2023-07-22T01:58:16;12.23;;;5.80;;
61962;SDS011;47927;42.646;23.096;2023-07-22T02:00:41;12.13;;;5.85;;
61962;SDS011;47927;42.646;23.096;2023-07-22T02:03:07;13.18;;;5.28;;
61962;SDS011;47927;42.646;23.096;2023-07-22T02:05:33;14.05;;;6.22;;
61962;SDS011;47927;42.646;23.096;2023-07-22T02:07:58;11.32;;;5.53;;
61962;SDS011;47927;42.646;23.096;2023-07-22T02:10:24;16.50;;;6.75;;
61962;SDS011;47927;42.646;23.096;2023-07-22T02:12:50;10.90;;;6.10;;
61962;SDS011;47927;42.646;23.096;2023-07-22T02:15:15;10.07;;;5.70;;
61962;SDS011;47927;42.646;23.096;2023-07-22T02:17:41;11.82;;;5.93;;
61962;SDS011;47927;42.646;23.096;2023-07-22T02:20:07;11.98;;;6.45;;
61962;SDS011;47927;42.646;23.096;2023-07-22T02:22:34;11.45;;;5.80;;
61962;SDS011;47927;42.646;23.096;2023-07-22T02:24:59;11.98;;;6.22;;
61962;SDS011;47927;42.646;23.096;2023-07-22T02:27:25;12.65;;;6.10;;
61962;SDS011;47927;42.646;23.096;2023-07-22T02:29:50;15.25;;;6.22;;
61962;SDS011;47927;42.646;23.096;2023-07-22T02:32:17;14.63;;;6.85;;
61962;SDS011;47927;42.646;23.096;2023-07-22T02:34:42;17.80;;;7.63;;
61962;SDS011;47927;42.646;23.096;2023-07-22T02:37:08;19.08;;;7.20;;
61962;SDS011;47927;42.646;23.096;2023-07-22T02:39:34;14.57;;;6.63;;
61962;SDS011;47927;42.646;23.096;2023-07-22T02:41:59;14.80;;;6.03;;
61962;SDS011;47927;42.646;23.096;2023-07-22T02:44:25;13.13;;;6.82;;
61962;SDS011;47927;42.646;23.096;2023-07-22T02:46:51;16.88;;;7.50;;
61962;SDS011;47927;42.646;23.096;2023-07-22T02:49:17;15.48;;;7.25;;
61962;SDS011;47927;42.646;23.096;2023-07-22T02:51:43;15.75;;;8.30;;
61962;SDS011;47927;42.646;23.096;2023-07-22T02:54:09;16.35;;;7.25;;
61962;SDS011;47927;42.646;23.096;2023-07-22T02:56:34;14.68;;;7.05;;
61962;SDS011;47927;42.646;23.096;2023-07-22T02:59:00;20.08;;;7.72;;
61962;SDS011;47927;42.646;23.096;2023-07-22T03:01:25;16.15;;;7.13;;
61962;SDS011;47927;42.646;23.096;2023-07-22T03:03:51;14.27;;;7.13;;
61962;SDS011;47927;42.646;23.096;2023-07-22T03:06:35;18.42;;;7.85;;
61962;SDS011;47927;42.646;23.096;2023-07-22T03:09:01;20.02;;;7.60;;
61962;SDS011;47927;42.646;23.096;2023-07-22T03:11:26;15.77;;;7.70;;
61962;SDS011;47927;42.646;23.096;2023-07-22T03:13:52;15.90;;;6.90;;
61962;SDS011;47927;42.646;23.096;2023-07-22T03:16:18;13.25;;;6.82;;
61962;SDS011;47927;42.646;23.096;2023-07-22T03:18:45;18.52;;;7.53;;
61962;SDS011;47927;42.646;23.096;2023-07-22T03:21:11;14.98;;;7.28;;
61962;SDS011;47927;42.646;23.096;2023-07-22T03:23:36;13.10;;;6.43;;
61962;SDS011;47927;42.646;23.096;2023-07-22T03:26:02;17.15;;;7.65;;
61962;SDS011;47927;42.646;23.096;2023-07-22T03:28:27;16.73;;;7.95;;
61962;SDS011;47927;42.646;23.096;2023-07-22T03:30:53;16.42;;;8.15;;
61962;SDS011;47927;42.646;23.096;2023-07-22T03:33:18;13.85;;;6.50;;
61962;SDS011;47927;42.646;23.096;2023-07-22T03:35:44;13.80;;;6.85;;
61962;SDS011;47927;42.646;23.096;2023-07-22T03:38:11;12.70;;;6.80;;
61962;SDS011;47927;42.646;23.096;2023-07-22T03:40:36;16.60;;;7.40;;
61962;SDS011;47927;42.646;23.096;2023-07-22T03:43:03;16.52;;;7.22;;
61962;SDS011;47927;42.646;23.096;2023-07-22T03:45:28;15.10;;;6.60;;
61962;SDS011;47927;42.646;23.096;2023-07-22T03:47:57;16.88;;;7.18;;
61962;SDS011;47927;42.646;23.096;2023-07-22T03:50:24;14.15;;;7.70;;
61962;SDS011;47927;42.646;23.096;2023-07-22T03:52:50;13.55;;;6.65;;
61962;SDS011;47927;42.646;23.096;2023-07-22T03:55:15;15.60;;;6.68;;
61962;SDS011;47927;42.646;23.096;2023-07-22T03:57:41;15.25;;;6.70;;
61962;SDS011;47927;42.646;23.096;2023-07-22T04:00:07;13.95;;;6.53;;
61962;SDS011;47927;42.646;23.096;2023-07-22T04:02:39;14.27;;;6.65;;
61962;SDS011;47927;42.646;23.096;2023-07-22T04:05:05;15.95;;;7.07;;
61962;SDS011;47927;42.646;23.096;2023-07-22T04:07:31;13.52;;;6.90;;
61962;SDS011;47927;42.646;23.096;2023-07-22T04:09:56;18.77;;;8.05;;
61962;SDS011;47927;42.646;23.096;2023-07-22T04:12:22;13.60;;;6.97;;
61962;SDS011;47927;42.646;23.096;2023-07-22T04:14:48;15.30;;;7.15;;
61962;SDS011;47927;42.646;23.096;2023-07-22T04:17:13;17.60;;;7.55;;
61962;SDS011;47927;42.646;23.096;2023-07-22T04:19:40;12.90;;;6.50;;
61962;SDS011;47927;42.646;23.096;2023-07-22T04:22:07;12.02;;;6.95;;
61962;SDS011;47927;42.646;23.096;2023-07-22T04:24:33;14.88;;;6.55;;
61962;SDS011;47927;42.646;23.096;2023-07-22T04:26:59;13.73;;;5.90;;
61962;SDS011;47927;42.646;23.096;2023-07-22T04:29:26;15.90;;;6.95;;
61962;SDS011;47927;42.646;23.096;2023-07-22T04:31:51;12.93;;;6.40;;
61962;SDS011;47927;42.646;23.096;2023-07-22T04:34:17;14.57;;;6.75;;
61962;SDS011;47927;42.646;23.096;2023-07-22T04:36:42;15.88;;;6.47;;
61962;SDS011;47927;42.646;23.096;2023-07-22T04:39:08;13.88;;;6.53;;
61962;SDS011;47927;42.646;23.096;2023-07-22T04:41:34;15.65;;;7.03;;
61962;SDS011;47927;42.646;23.096;2023-07-22T04:44:00;15.77;;;6.53;;
61962;SDS011;47927;42.646;23.096;2023-07-22T04:46:25;15.10;;;6.82;;
61962;SDS011;47927;42.646;23.096;2023-07-22T04:48:54;13.85;;;6.68;;
61962;SDS011;47927;42.646;23.096;2023-07-22T04:51:21;16.88;;;7.18;;
61962;SDS011;47927;42.646;23.096;2023-07-22T04:53:47;14.13;;;7.40;;
61962;SDS011;47927;42.646;23.096;2023-07-22T04:56:12;15.93;;;7.30;;
61962;SDS011;47927;42.646;23.096;2023-07-22T04:58:38;15.50;;;6.95;;
61962;SDS011;47927;42.646;23.096;2023-07-22T05:01:04;12.20;;;6.82;;
61962;SDS011;47927;42.646;23.096;2023-07-22T05:03:29;18.50;;;6.63;;
61962;SDS011;47927;42.646;23.096;2023-07-22T05:05:55;16.15;;;7.65;;
61962;SDS011;47927;42.646;23.096;2023-07-22T05:08:24;15.35;;;7.20;;
61962;SDS011;47927;42.646;23.096;2023-07-22T05:10:50;15.20;;;6.35;;
61962;SDS011;47927;42.646;23.096;2023-07-22T05:13:17;22.45;;;7.18;;
61962;SDS011;47927;42.646;23.096;2023-07-22T05:15:42;16.85;;;7.57;;
61962;SDS011;47927;42.646;23.096;2023-07-22T05:18:08;14.00;;;7.93;;
61962;SDS011;47927;42.646;23.096;2023-07-22T05:20:33;18.60;;;8.00;;
61962;SDS011;47927;42.646;23.096;2023-07-22T05:22:59;14.85;;;7.93;;
61962;SDS011;47927;42.646;23.096;2023-07-22T05:25:24;17.05;;;7.60;;
61962;SDS011;47927;42.646;23.096;2023-07-22T05:27:50;20.35;;;8.48;;
61962;SDS011;47927;42.646;23.096;2023-07-22T05:30:15;15.73;;;8.02;;
61962;SDS011;47927;42.646;23.096;2023-07-22T05:32:41;14.75;;;8.95;;
61962;SDS011;47927;42.646;23.096;2023-07-22T05:35:07;18.63;;;8.25;;
61962;SDS011;47927;42.646;23.096;2023-07-22T05:37:34;20.88;;;8.82;;
61962;SDS011;47927;42.646;23.096;2023-07-22T05:39:59;20.08;;;8.57;;
61962;SDS011;47927;42.646;23.096;2023-07-22T05:42:26;20.90;;;8.45;;
61962;SDS011;47927;42.646;23.096;2023-07-22T05:44:54;26.92;;;8.23;;
61962;SDS011;47927;42.646;23.096;2023-07-22T05:47:21;11.90;;;6.57;;
61962;SDS011;47927;42.646;23.096;2023-07-22T05:49:47;20.45;;;7.65;;
61962;SDS011;47927;42.646;23.096;2023-07-22T05:52:12;19.58;;;7.05;;
61962;SDS011;47927;42.646;23.096;2023-07-22T05:54:38;19.52;;;7.57;;
61962;SDS011;47927;42.646;23.096;2023-07-22T05:57:04;16.08;;;7.10;;
61962;SDS011;47927;42.646;23.096;2023-07-22T05:59:32;14.68;;;6.55;;
61962;SDS011;47927;42.646;23.096;2023-07-22T06:01:57;17.65;;;6.57;;
61962;SDS011;47927;42.646;23.096;2023-07-22T06:04:23;17.77;;;6.95;;
61962;SDS011;47927;42.646;23.096;2023-07-22T06:06:49;16.25;;;7.00;;
61962;SDS011;47927;42.646;23.096;2023-07-22T06:09:14;13.30;;;6.93;;
61962;SDS011;47927;42.646;23.096;2023-07-22T06:11:40;14.45;;;7.05;;
61962;SDS011;47927;42.646;23.096;2023-07-22T06:14:05;14.38;;;7.10;;
61962;SDS011;47927;42.646;23.096;2023-07-22T06:16:31;15.98;;;6.95;;
61962;SDS011;47927;42.646;23.096;2023-07-22T06:18:57;12.80;;;6.45;;
61962;SDS011;47927;42.646;23.096;2023-07-22T06:21:23;14.63;;;6.38;;
61962;SDS011;47927;42.646;23.096;2023-07-22T06:23:48;17.30;;;6.43;;
61962;SDS011;47927;42.646;23.096;2023-07-22T06:26:14;15.60;;;6.45;;
61962;SDS011;47927;42.646;23.096;2023-07-22T06:28:39;12.13;;;6.07;;
61962;SDS011;47927;42.646;23.096;2023-07-22T06:31:05;14.02;;;6.70;;
61962;SDS011;47927;42.646;23.096;2023-07-22T06:33:30;20.92;;;6.53;;
61962;SDS011;47927;42.646;23.096;2023-07-22T06:35:55;15.77;;;6.20;;
61962;SDS011;47927;42.646;23.096;2023-07-22T06:38:21;17.60;;;6.40;;
61962;SDS011;47927;42.646;23.096;2023-07-22T06:40:46;10.68;;;6.20;;
61962;SDS011;47927;42.646;23.096;2023-07-22T06:43:12;15.25;;;6.35;;
61962;SDS011;47927;42.646;23.096;2023-07-22T06:45:37;20.35;;;6.72;;
61962;SDS011;47927;42.646;23.096;2023-07-22T06:48:03;22.85;;;6.85;;
61962;SDS011;47927;42.646;23.096;2023-07-22T06:50:29;13.48;;;6.30;;
61962;SDS011;47927;42.646;23.096;2023-07-22T06:52:54;16.75;;;7.47;;
61962;SDS011;47927;42.646;23.096;2023-07-22T06:55:20;19.35;;;6.18;;
61962;SDS011;47927;42.646;23.096;2023-07-22T06:57:47;25.98;;;7.22;;
61962;SDS011;47927;42.646;23.096;2023-07-22T07:00:13;18.20;;;6.80;;
61962;SDS011;47927;42.646;23.096;2023-07-22T07:02:40;23.33;;;7.00;;
61962;SDS011;47927;42.646;23.096;2023-07-22T07:05:06;16.13;;;6.25;;
61962;SDS011;47927;42.646;23.096;2023-07-22T07:07:32;24.00;;;6.90;;
61962;SDS011;47927;42.646;23.096;2023-07-22T07:09:58;21.13;;;7.35;;
61962;SDS011;47927;42.646;23.096;2023-07-22T07:12:23;26.17;;;6.80;;
61962;SDS011;47927;42.646;23.096;2023-07-22T07:14:52;25.02;;;7.38;;
61962;SDS011;47927;42.646;23.096;2023-07-22T07:17:18;20.13;;;6.78;;
61962;SDS011;47927;42.646;23.096;2023-07-22T07:19:44;23.58;;;7.82;;
61962;SDS011;47927;42.646;23.096;2023-07-22T07:22:10;22.30;;;7.38;;
61962;SDS011;47927;42.646;23.096;2023-07-22T07:24:35;20.05;;;7.53;;
61962;SDS011;47927;42.646;23.096;2023-07-22T07:27:01;14.35;;;7.22;;
61962;SDS011;47927;42.646;23.096;2023-07-22T07:29:27;21.85;;;8.05;;
61962;SDS011;47927;42.646;23.096;2023-07-22T07:31:52;24.08;;;6.95;;
61962;SDS011;47927;42.646;23.096;2023-07-22T07:34:18;27.40;;;7.30;;
61962;SDS011;47927;42.646;23.096;2023-07-22T07:36:43;20.77;;;7.05;;
61962;SDS011;47927;42.646;23.096;2023-07-22T07:39:09;26.48;;;7.47;;
61962;SDS011;47927;42.646;23.096;2023-07-22T07:41:34;18.42;;;7.30;;
61962;SDS011;47927;42.646;23.096;2023-07-22T07:44:00;22.10;;;7.15;;
61962;SDS011;47927;42.646;23.096;2023-07-22T07:46:26;24.67;;;7.10;;
61962;SDS011;47927;42.646;23.096;2023-07-22T07:48:57;24.80;;;7.68;;
61962;SDS011;47927;42.646;23.096;2023-07-22T07:51:27;15.27;;;6.70;;
61962;SDS011;47927;42.646;23.096;2023-07-22T07:53:55;21.65;;;7.03;;
61962;SDS011;47927;42.646;23.096;2023-07-22T07:56:21;20.50;;;6.90;;
61962;SDS011;47927;42.646;23.096;2023-07-22T07:58:48;22.00;;;7.43;;
61962;SDS011;47927;42.646;23.096;2023-07-22T08:01:15;22.15;;;7.18;;
61962;SDS011;47927;42.646;23.096;2023-07-22T08:03:41;17.48;;;6.50;;
61962;SDS011;47927;42.646;23.096;2023-07-22T08:06:09;24.02;;;6.90;;
61962;SDS011;47927;42.646;23.096;2023-07-22T08:08:35;19.17;;;7.00;;
61962;SDS011;47927;42.646;23.096;2023-07-22T08:11:02;24.07;;;7.00;;
61962;SDS011;47927;42.646;23.096;2023-07-22T08:13:30;17.08;;;6.25;;
61962;SDS011;47927;42.646;23.096;2023-07-22T08:15:59;16.90;;;6.07;;
61962;SDS011;47927;42.646;23.096;2023-07-22T08:18:26;15.75;;;5.50;;
61962;SDS011;47927;42.646;23.096;2023-07-22T08:20:52;12.10;;;5.45;;
61962;SDS011;47927;42.646;23.096;2023-07-22T08:23:19;19.77;;;5.97;;
61962;SDS011;47927;42.646;23.096;2023-07-22T08:25:45;19.73;;;6.43;;
61962;SDS011;47927;42.646;23.096;2023-07-22T08:28:10;15.43;;;5.90;;
61962;SDS011;47927;42.646;23.096;2023-07-22T08:30:36;18.65;;;6.45;;
61962;SDS011;47927;42.646;23.096;2023-07-22T08:33:02;17.27;;;5.28;;
61962;SDS011;47927;42.646;23.096;2023-07-22T08:35:27;14.98;;;6.18;;
61962;SDS011;47927;42.646;23.096;2023-07-22T08:37:53;12.60;;;5.43;;
61962;SDS011;47927;42.646;23.096;2023-07-22T08:40:19;14.60;;;5.65;;
61962;SDS011;47927;42.646;23.096;2023-07-22T08:42:45;21.45;;;6.35;;
61962;SDS011;47927;42.646;23.096;2023-07-22T08:45:12;18.20;;;6.20;;
61962;SDS011;47927;42.646;23.096;2023-07-22T08:47:46;12.85;;;5.60;;
61962;SDS011;47927;42.646;23.096;2023-07-22T08:50:14;13.00;;;6.03;;
61962;SDS011;47927;42.646;23.096;2023-07-22T08:52:45;14.98;;;6.00;;
61962;SDS011;47927;42.646;23.096;2023-07-22T08:55:11;19.45;;;5.90;;
61962;SDS011;47927;42.646;23.096;2023-07-22T08:57:38;22.50;;;5.85;;
61962;SDS011;47927;42.646;23.096;2023-07-22T09:00:04;18.50;;;5.40;;
61962;SDS011;47927;42.646;23.096;2023-07-22T09:02:35;15.30;;;5.43;;
61962;SDS011;47927;42.646;23.096;2023-07-22T09:05:01;12.23;;;5.18;;
61962;SDS011;47927;42.646;23.096;2023-07-22T09:07:28;13.88;;;5.38;;
61962;SDS011;47927;42.646;23.096;2023-07-22T09:09:55;21.20;;;5.75;;
61962;SDS011;47927;42.646;23.096;2023-07-22T09:12:22;19.33;;;6.28;;
61962;SDS011;47927;42.646;23.096;2023-07-22T09:14:48;17.42;;;5.28;;
61962;SDS011;47927;42.646;23.096;2023-07-22T09:17:16;17.60;;;5.13;;
61962;SDS011;47927;42.646;23.096;2023-07-22T09:19:41;17.15;;;5.30;;
61962;SDS011;47927;42.646;23.096;2023-07-22T09:22:07;15.40;;;5.22;;
61962;SDS011;47927;42.646;23.096;2023-07-22T09:24:33;18.30;;;5.72;;
61962;SDS011;47927;42.646;23.096;2023-07-22T09:26:58;14.00;;;4.38;;
61962;SDS011;47927;42.646;23.096;2023-07-22T09:29:35;12.93;;;4.75;;
61962;SDS011;47927;42.646;23.096;2023-07-22T09:32:02;16.85;;;5.03;;
61962;SDS011;47927;42.646;23.096;2023-07-22T09:34:28;13.65;;;4.82;;
61962;SDS011;47927;42.646;23.096;2023-07-22T09:36:57;14.35;;;5.13;;
61962;SDS011;47927;42.646;23.096;2023-07-22T09:39:25;13.80;;;4.57;;
61962;SDS011;47927;42.646;23.096;2023-07-22T09:41:51;21.30;;;5.88;;
61962;SDS011;47927;42.646;23.096;2023-07-22T09:44:20;23.40;;;5.65;;
61962;SDS011;47927;42.646;23.096;2023-07-22T09:46:50;14.10;;;5.47;;
61962;SDS011;47927;42.646;23.096;2023-07-22T09:49:17;24.65;;;8.75;;
61962;SDS011;47927;42.646;23.096;2023-07-22T09:51:43;16.57;;;5.37;;
61962;SDS011;47927;42.646;23.096;2023-07-22T09:54:09;16.92;;;6.85;;
61962;SDS011;47927;42.646;23.096;2023-07-22T09:56:45;20.00;;;5.40;;
61962;SDS011;47927;42.646;23.096;2023-07-22T09:59:12;18.08;;;5.30;;
61962;SDS011;47927;42.646;23.096;2023-07-22T10:01:38;16.90;;;4.57;;
61962;SDS011;47927;42.646;23.096;2023-07-22T10:04:05;17.10;;;4.65;;
61962;SDS011;47927;42.646;23.096;2023-07-22T10:06:32;10.55;;;5.30;;
61962;SDS011;47927;42.646;23.096;2023-07-22T10:09:02;15.25;;;6.05;;
61962;SDS011;47927;42.646;23.096;2023-07-22T10:11:38;17.23;;;4.78;;
61962;SDS011;47927;42.646;23.096;2023-07-22T10:14:04;20.90;;;5.05;;
61962;SDS011;47927;42.646;23.096;2023-07-22T10:16:31;18.38;;;4.82;;
61962;SDS011;47927;42.646;23.096;2023-07-22T10:18:57;17.50;;;5.40;;
61962;SDS011;47927;42.646;23.096;2023-07-22T10:23:51;14.85;;;5.28;;
61962;SDS011;47927;42.646;23.096;2023-07-22T10:26:17;16.13;;;5.13;;
61962;SDS011;47927;42.646;23.096;2023-07-22T10:28:44;17.60;;;5.43;;
61962;SDS011;47927;42.646;23.096;2023-07-22T10:31:11;15.75;;;4.90;;
61962;SDS011;47927;42.646;23.096;2023-07-22T10:33:37;17.65;;;5.25;;
61962;SDS011;47927;42.646;23.096;2023-07-22T10:38:38;22.92;;;6.07;;
61962;SDS011;47927;42.646;23.096;2023-07-22T10:41:16;15.93;;;5.47;;
61962;SDS011;47927;42.646;23.096;2023-07-22T10:43:42;23.15;;;5.85;;
61962;SDS011;47927;42.646;23.096;2023-07-22T10:46:30;18.13;;;5.45;;
61962;SDS011;47927;42.646;23.096;2023-07-22T10:49:06;20.38;;;4.68;;
61962;SDS011;47927;42.646;23.096;2023-07-22T10:51:35;20.67;;;4.95;;
61962;SDS011;47927;42.646;23.096;2023-07-22T10:54:02;23.67;;;4.70;;
61962;SDS011;47927;42.646;23.096;2023-07-22T10:56:28;22.75;;;5.20;;
61962;SDS011;47927;42.646;23.096;2023-07-22T11:06:31;20.10;;;5.03;;
61962;SDS011;47927;42.646;23.096;2023-07-22T11:08:57;16.23;;;4.95;;
61962;SDS011;47927;42.646;23.096;2023-07-22T11:11:36;17.95;;;4.85;;
61962;SDS011;47927;42.646;23.096;2023-07-22T11:16:59;16.33;;;4.75;;
61962;SDS011;47927;42.646;23.096;2023-07-22T11:19:26;15.52;;;5.13;;
61962;SDS011;47927;42.646;23.096;2023-07-22T11:21:53;19.17;;;5.57;;
61962;SDS011;47927;42.646;23.096;2023-07-22T11:24:20;18.27;;;5.50;;
61962;SDS011;47927;42.646;23.096;2023-07-22T11:26:47;27.85;;;5.43;;
61962;SDS011;47927;42.646;23.096;2023-07-22T11:29:14;17.45;;;4.70;;
61962;SDS011;47927;42.646;23.096;2023-07-22T11:31:43;17.42;;;4.95;;
61962;SDS011;47927;42.646;23.096;2023-07-22T11:34:11;15.88;;;4.90;;
61962;SDS011;47927;42.646;23.096;2023-07-22T11:36:38;19.27;;;4.90;;
61962;SDS011;47927;42.646;23.096;2023-07-22T11:39:08;23.33;;;5.13;;
61962;SDS011;47927;42.646;23.096;2023-07-22T11:41:35;21.08;;;5.68;;
61962;SDS011;47927;42.646;23.096;2023-07-22T11:44:03;27.83;;;5.10;;
61962;SDS011;47927;42.646;23.096;2023-07-22T11:46:34;20.13;;;5.00;;
61962;SDS011;47927;42.646;23.096;2023-07-22T11:49:26;25.77;;;5.28;;
61962;SDS011;47927;42.646;23.096;2023-07-22T11:51:54;20.05;;;5.25;;
61962;SDS011;47927;42.646;23.096;2023-07-22T11:54:27;21.98;;;4.55;;
61962;SDS011;47927;42.646;23.096;2023-07-22T11:56:55;17.65;;;4.78;;
61962;SDS011;47927;42.646;23.096;2023-07-22T11:59:40;15.30;;;4.80;;
61962;SDS011;47927;42.646;23.096;2023-07-22T12:04:39;20.60;;;5.07;;
61962;SDS011;47927;42.646;23.096;2023-07-22T12:07:04;21.67;;;4.75;;
61962;SDS011;47927;42.646;23.096;2023-07-22T12:09:30;20.73;;;5.35;;
61962;SDS011;47927;42.646;23.096;2023-07-22T12:11:57;25.08;;;4.78;;
61962;SDS011;47927;42.646;23.096;2023-07-22T12:14:24;19.05;;;4.90;;
61962;SDS011;47927;42.646;23.096;2023-07-22T12:16:52;17.13;;;5.30;;
61962;SDS011;47927;42.646;23.096;2023-07-22T12:19:22;21.77;;;4.95;;
61962;SDS011;47927;42.646;23.096;2023-07-22T12:21:47;17.10;;;4.53;;
61962;SDS011;47927;42.646;23.096;2023-07-22T12:24:14;16.67;;;4.25;;
61962;SDS011;47927;42.646;23.096;2023-07-22T12:26:40;20.00;;;5.07;;
61962;SDS011;47927;42.646;23.096;2023-07-22T12:29:07;17.67;;;4.80;;
61962;SDS011;47927;42.646;23.096;2023-07-22T12:31:33;23.25;;;5.47;;
61962;SDS011;47927;42.646;23.096;2023-07-22T12:33:59;22.30;;;5.18;;
61962;SDS011;47927;42.646;23.096;2023-07-22T12:36:24;24.20;;;5.20;;
61962;SDS011;47927;42.646;23.096;2023-07-22T12:38:50;21.70;;;4.70;;
61962;SDS011;47927;42.646;23.096;2023-07-22T12:41:16;19.73;;;4.63;;
61962;SDS011;47927;42.646;23.096;2023-07-22T12:43:42;17.48;;;4.25;;
61962;SDS011;47927;42.646;23.096;2023-07-22T12:46:07;32.42;;;5.30;;
61962;SDS011;47927;42.646;23.096;2023-07-22T12:48:33;19.48;;;4.85;;
61962;SDS011;47927;42.646;23.096;2023-07-22T12:50:58;22.95;;;5.20;;
61962;SDS011;47927;42.646;23.096;2023-07-22T12:53:24;24.15;;;5.05;;
61962;SDS011;47927;42.646;23.096;2023-07-22T12:55:50;24.80;;;5.45;;
61962;SDS011;47927;42.646;23.096;2023-07-22T12:58:16;24.08;;;4.75;;
61962;SDS011;47927;42.646;23.096;2023-07-22T13:00:41;24.50;;;5.07;;
61962;SDS011;47927;42.646;23.096;2023-07-22T13:03:07;27.33;;;4.88;;
61962;SDS011;47927;42.646;23.096;2023-07-22T13:05:32;16.35;;;4.80;;
61962;SDS011;47927;42.646;23.096;2023-07-22T13:07:58;17.88;;;4.60;;
61962;SDS011;47927;42.646;23.096;2023-07-22T13:10:26;22.13;;;5.15;;
61962;SDS011;47927;42.646;23.096;2023-07-22T13:12:56;26.65;;;5.55;;
61962;SDS011;47927;42.646;23.096;2023-07-22T13:15:21;15.45;;;4.90;;
61962;SDS011;47927;42.646;23.096;2023-07-22T13:17:47;23.50;;;4.10;;
61962;SDS011;47927;42.646;23.096;2023-07-22T13:20:12;15.25;;;4.53;;
61962;SDS011;47927;42.646;23.096;2023-07-22T13:22:39;24.10;;;6.38;;
61962;SDS011;47927;42.646;23.096;2023-07-22T13:25:05;29.48;;;5.47;;
61962;SDS011;47927;42.646;23.096;2023-07-22T13:27:31;26.17;;;5.15;;
61962;SDS011;47927;42.646;23.096;2023-07-22T13:29:57;24.73;;;4.60;;
61962;SDS011;47927;42.646;23.096;2023-07-22T13:32:41;19.55;;;5.22;;
61962;SDS011;47927;42.646;23.096;2023-07-22T13:35:07;20.50;;;4.30;;
61962;SDS011;47927;42.646;23.096;2023-07-22T13:37:34;24.10;;;4.78;;
61962;SDS011;47927;42.646;23.096;2023-07-22T13:39:59;22.48;;;5.28;;
61962;SDS011;47927;42.646;23.096;2023-07-22T13:42:25;21.90;;;4.85;;
61962;SDS011;47927;42.646;23.096;2023-07-22T13:44:50;19.80;;;4.38;;
61962;SDS011;47927;42.646;23.096;2023-07-22T13:47:16;20.05;;;4.57;;
61962;SDS011;47927;42.646;23.096;2023-07-22T13:49:41;17.90;;;4.72;;
61962;SDS011;47927;42.646;23.096;2023-07-22T13:52:07;23.83;;;5.13;;
61962;SDS011;47927;42.646;23.096;2023-07-22T13:54:32;21.42;;;5.05;;
61962;SDS011;47927;42.646;23.096;2023-07-22T13:56:58;20.77;;;4.75;;
61962;SDS011;47927;42.646;23.096;2023-07-22T13:59:23;25.55;;;4.88;;
61962;SDS011;47927;42.646;23.096;2023-07-22T14:01:49;21.77;;;4.95;;
61962;SDS011;47927;42.646;23.096;2023-07-22T14:04:14;22.50;;;5.45;;
61962;SDS011;47927;42.646;23.096;2023-07-22T14:06:40;19.88;;;5.35;;
61962;SDS011;47927;42.646;23.096;2023-07-22T14:09:05;22.90;;;5.10;;
61962;SDS011;47927;42.646;23.096;2023-07-22T14:11:31;22.50;;;5.40;;
61962;SDS011;47927;42.646;23.096;2023-07-22T14:13:57;25.70;;;5.68;;
61962;SDS011;47927;42.646;23.096;2023-07-22T14:16:22;25.58;;;5.72;;
61962;SDS011;47927;42.646;23.096;2023-07-22T14:18:48;32.42;;;4.65;;
61962;SDS011;47927;42.646;23.096;2023-07-22T14:21:13;21.50;;;6.00;;
61962;SDS011;47927;42.646;23.096;2023-07-22T14:23:39;17.27;;;4.70;;
61962;SDS011;47927;42.646;23.096;2023-07-22T14:26:04;25.48;;;6.10;;
61962;SDS011;47927;42.646;23.096;2023-07-22T14:28:30;24.35;;;4.85;;
61962;SDS011;47927;42.646;23.096;2023-07-22T14:30:55;20.73;;;5.20;;
61962;SDS011;47927;42.646;23.096;2023-07-22T14:33:21;15.80;;;4.93;;
61962;SDS011;47927;42.646;23.096;2023-07-22T14:35:46;23.63;;;5.00;;